sensor_id;sensor_type;location;lat;lon;timestamp;pressure;altitude;pressure_sealevel;temperature;humidity
34674;BME280;20879;55.668;37.858;2023-05-11T00:01:04;100414.72;;;11.92;40.87
34674;BME280;20879;55.668;37.858;2023-05-11T00:03:35;100419.94;;;11.87;41.12
34674;BME280;20879;55.668;37.858;2023-05-11T00:06:06;100417.38;;;11.85;40.99
34674;BME280;20879;55.668;37.858;2023-05-11T00:08:35;100413.06;;;11.81;41.19
34674;BME280;20879;55.668;37.858;2023-05-11T00:11:06;100418.28;;;11.81;41.53
34674;BME280;20879;55.668;37.858;2023-05-11T00:13:36;100408.78;;;11.80;41.63
34674;BME280;20879;55.668;37.858;2023-05-11T00:16:05;100407.09;;;11.76;41.48
34674;BME280;20879;55.668;37.858;2023-05-11T00:18:37;100412.28;;;11.76;41.59
34674;BME280;20879;55.668;37.858;2023-05-11T00:21:12;100416.59;;;11.76;41.98
34674;BME280;20879;55.668;37.858;2023-05-11T00:23:48;100409.69;;;11.76;41.81
34674;BME280;20879;55.668;37.858;2023-05-11T00:26:17;100420.09;;;11.73;41.91
34674;BME280;20879;55.668;37.858;2023-05-11T00:28:47;100407.16;;;11.67;42.24
34674;BME280;20879;55.668;37.858;2023-05-11T00:31:16;100417.56;;;11.64;42.13
34674;BME280;20879;55.668;37.858;2023-05-11T00:33:48;100417.59;;;11.61;42.71
34674;BME280;20879;55.668;37.858;2023-05-11T00:36:17;100412.41;;;11.58;42.33
34674;BME280;20879;55.668;37.858;2023-05-11T00:38:47;100417.63;;;11.54;42.80
34674;BME280;20879;55.668;37.858;2023-05-11T00:41:16;100432.38;;;11.52;43.11
34674;BME280;20879;55.668;37.858;2023-05-11T00:43:46;100418.56;;;11.47;43.01
34674;BME280;20879;55.668;37.858;2023-05-11T00:46:20;100421.16;;;11.47;43.18
34674;BME280;20879;55.668;37.858;2023-05-11T00:48:57;100406.50;;;11.42;42.88
34674;BME280;20879;55.668;37.858;2023-05-11T00:51:27;100427.22;;;11.49;42.93
34674;BME280;20879;55.668;37.858;2023-05-11T00:53:58;100409.06;;;11.43;42.80
34674;BME280;20879;55.668;37.858;2023-05-11T00:56:28;100420.31;;;11.44;43.37
34674;BME280;20879;55.668;37.858;2023-05-11T00:58:58;100429.81;;;11.45;43.29
34674;BME280;20879;55.668;37.858;2023-05-11T01:01:27;100424.63;;;11.49;43.41
34674;BME280;20879;55.668;37.858;2023-05-11T01:03:59;100422.00;;;11.46;43.64
34674;BME280;20879;55.668;37.858;2023-05-11T01:06:36;100428.94;;;11.46;43.49
34674;BME280;20879;55.668;37.858;2023-05-11T01:09:31;100428.06;;;11.48;43.32
34674;BME280;20879;55.668;37.858;2023-05-11T01:12:09;100420.31;;;11.47;43.27
34674;BME280;20879;55.668;37.858;2023-05-11T01:14:47;100432.38;;;11.51;43.35
34674;BME280;20879;55.668;37.858;2023-05-11T01:17:33;100428.94;;;11.46;43.79
34674;BME280;20879;55.668;37.858;2023-05-11T01:20:11;100424.69;;;11.37;43.83
34674;BME280;20879;55.668;37.858;2023-05-11T01:22:58;100416.09;;;11.29;44.19
34674;BME280;20879;55.668;37.858;2023-05-11T01:28:51;100422.09;;;11.37;43.87
34674;BME280;20879;55.668;37.858;2023-05-11T01:31:39;100415.19;;;11.36;44.28
34674;BME280;20879;55.668;37.858;2023-05-11T01:34:12;100424.59;;;11.52;43.83
34674;BME280;20879;55.668;37.858;2023-05-11T01:36:51;100430.59;;;11.54;43.34
34674;BME280;20879;55.668;37.858;2023-05-11T01:39:26;100437.56;;;11.48;43.50
34674;BME280;20879;55.668;37.858;2023-05-11T01:41:57;100433.31;;;11.42;43.88
34674;BME280;20879;55.668;37.858;2023-05-11T01:44:40;100429.06;;;11.30;44.99
34674;BME280;20879;55.668;37.858;2023-05-11T01:47:12;100430.81;;;11.27;46.07
34674;BME280;20879;55.668;37.858;2023-05-11T01:49:44;100434.25;;;11.26;44.20
34674;BME280;20879;55.668;37.858;2023-05-11T01:52:14;100427.38;;;11.25;43.99
34674;BME280;20879;55.668;37.858;2023-05-11T01:54:45;100429.91;;;11.34;43.28
34674;BME280;20879;55.668;37.858;2023-05-11T01:57:17;100428.13;;;11.36;43.05
34674;BME280;20879;55.668;37.858;2023-05-11T01:59:48;100422.97;;;11.39;45.24
34674;BME280;20879;55.668;37.858;2023-05-11T02:02:42;100414.31;;;11.37;45.21
34674;BME280;20879;55.668;37.858;2023-05-11T02:05:14;100423.84;;;11.35;44.00
34674;BME280;20879;55.668;37.858;2023-05-11T02:07:47;100417.81;;;11.30;43.02
34674;BME280;20879;55.668;37.858;2023-05-11T02:10:25;100428.19;;;11.30;45.71
34674;BME280;20879;55.668;37.858;2023-05-11T02:13:03;100422.22;;;11.18;46.85
34674;BME280;20879;55.668;37.858;2023-05-11T02:15:36;100430.00;;;11.14;47.89
34674;BME280;20879;55.668;37.858;2023-05-11T02:18:15;100412.78;;;11.07;46.94
34674;BME280;20879;55.668;37.858;2023-05-11T02:20:57;100426.66;;;11.02;47.73
34674;BME280;20879;55.668;37.858;2023-05-11T02:23:33;100421.44;;;11.01;48.14
34674;BME280;20879;55.668;37.858;2023-05-11T02:26:06;100424.06;;;10.95;49.42
34674;BME280;20879;55.668;37.858;2023-05-11T02:28:36;100419.78;;;10.94;48.98
34674;BME280;20879;55.668;37.858;2023-05-11T02:31:08;100412.91;;;10.80;50.75
34674;BME280;20879;55.668;37.858;2023-05-11T02:33:44;100429.38;;;10.76;51.83
34674;BME280;20879;55.668;37.858;2023-05-11T02:36:21;100423.34;;;10.71;50.91
34674;BME280;20879;55.668;37.858;2023-05-11T02:39:03;100428.50;;;10.74;51.54
34674;BME280;20879;55.668;37.858;2023-05-11T02:41:38;100428.47;;;10.80;51.88
34674;BME280;20879;55.668;37.858;2023-05-11T02:44:13;100434.47;;;10.89;49.78
34674;BME280;20879;55.668;37.858;2023-05-11T02:46:53;100416.31;;;10.95;48.44
34674;BME280;20879;55.668;37.858;2023-05-11T02:49:26;100435.94;;;11.31;47.47
34674;BME280;20879;55.668;37.858;2023-05-11T02:51:59;100429.88;;;11.37;47.00
34674;BME280;20879;55.668;37.858;2023-05-11T02:54:32;100436.72;;;11.46;47.33
34674;BME280;20879;55.668;37.858;2023-05-11T02:57:08;100434.06;;;11.52;46.92
34674;BME280;20879;55.668;37.858;2023-05-11T02:59:45;100445.28;;;11.59;47.10
34674;BME280;20879;55.668;37.858;2023-05-11T03:02:20;100441.78;;;11.66;46.76
34674;BME280;20879;55.668;37.858;2023-05-11T03:04:52;100440.00;;;11.68;47.47
34674;BME280;20879;55.668;37.858;2023-05-11T03:07:27;100440.00;;;11.68;47.58
34674;BME280;20879;55.668;37.858;2023-05-11T03:09:56;100435.69;;;11.65;47.57
34674;BME280;20879;55.668;37.858;2023-05-11T03:12:26;100442.53;;;11.76;47.76
34674;BME280;20879;55.668;37.858;2023-05-11T03:14:59;100450.31;;;11.80;47.35
34674;BME280;20879;55.668;37.858;2023-05-11T03:17:33;100458.88;;;11.87;47.64
34674;BME280;20879;55.668;37.858;2023-05-11T03:20:07;100450.16;;;11.99;46.66
34674;BME280;20879;55.668;37.858;2023-05-11T03:22:42;100427.81;;;11.81;47.29
34674;BME280;20879;55.668;37.858;2023-05-11T03:25:24;100461.34;;;12.07;47.84
34674;BME280;20879;55.668;37.858;2023-05-11T03:28:00;100456.97;;;12.09;47.52
34674;BME280;20879;55.668;37.858;2023-05-11T03:30:33;100459.56;;;12.11;47.60
34674;BME280;20879;55.668;37.858;2023-05-11T03:33:03;100448.31;;;12.10;46.79
34674;BME280;20879;55.668;37.858;2023-05-11T03:35:35;100458.72;;;12.09;47.18
34674;BME280;20879;55.668;37.858;2023-05-11T03:38:06;100456.91;;;12.17;46.99
34674;BME280;20879;55.668;37.858;2023-05-11T03:40:39;100461.19;;;12.24;47.07
34674;BME280;20879;55.668;37.858;2023-05-11T03:43:11;100447.34;;;12.22;46.51
34674;BME280;20879;55.668;37.858;2023-05-11T03:45:45;100462.03;;;12.24;46.20
34674;BME280;20879;55.668;37.858;2023-05-11T03:48:27;100435.22;;;12.21;46.32
34674;BME280;20879;55.668;37.858;2023-05-11T03:51:00;100461.06;;;12.35;45.94
34674;BME280;20879;55.668;37.858;2023-05-11T03:53:35;100457.59;;;12.36;46.05
34674;BME280;20879;55.668;37.858;2023-05-11T03:56:05;100473.94;;;12.44;45.84
34674;BME280;20879;55.668;37.858;2023-05-11T03:58:37;100460.00;;;12.51;46.08
34674;BME280;20879;55.668;37.858;2023-05-11T04:01:17;100466.00;;;12.58;45.90
34674;BME280;20879;55.668;37.858;2023-05-11T04:03:49;100458.22;;;12.56;45.35
34674;BME280;20879;55.668;37.858;2023-05-11T04:06:24;100455.69;;;12.49;45.67
34674;BME280;20879;55.668;37.858;2023-05-11T04:09:11;100465.94;;;12.64;45.43
34674;BME280;20879;55.668;37.858;2023-05-11T04:11:41;100467.63;;;12.67;45.43
34674;BME280;20879;55.668;37.858;2023-05-11T04:14:10;100466.72;;;12.68;45.58
34674;BME280;20879;55.668;37.858;2023-05-11T04:16:41;100463.16;;;12.78;45.14
34674;BME280;20879;55.668;37.858;2023-05-11T04:19:10;100450.13;;;12.81;45.04
34674;BME280;20879;55.668;37.858;2023-05-11T04:21:47;100469.03;;;12.92;44.31
34674;BME280;20879;55.668;37.858;2023-05-11T04:24:22;100464.78;;;12.87;44.37
34674;BME280;20879;55.668;37.858;2023-05-11T04:26:56;100449.34;;;12.74;44.55
34674;BME280;20879;55.668;37.858;2023-05-11T04:29:31;100479.66;;;12.75;44.87
34674;BME280;20879;55.668;37.858;2023-05-11T04:32:01;100473.66;;;12.69;45.13
34674;BME280;20879;55.668;37.858;2023-05-11T04:34:31;100479.00;;;12.56;45.40
34674;BME280;20879;55.668;37.858;2023-05-11T04:37:04;100476.41;;;12.58;45.71
34674;BME280;20879;55.668;37.858;2023-05-11T04:39:41;100497.94;;;12.65;45.76
34674;BME280;20879;55.668;37.858;2023-05-11T04:42:11;100481.41;;;12.72;45.76
34674;BME280;20879;55.668;37.858;2023-05-11T04:44:42;100486.34;;;12.95;45.60
34674;BME280;20879;55.668;37.858;2023-05-11T04:47:12;100487.13;;;13.02;45.72
34674;BME280;20879;55.668;37.858;2023-05-11T04:49:48;100486.25;;;13.01;45.45
34674;BME280;20879;55.668;37.858;2023-05-11T04:52:19;100485.56;;;12.90;45.82
34674;BME280;20879;55.668;37.858;2023-05-11T04:54:50;100495.94;;;12.88;45.66
34674;BME280;20879;55.668;37.858;2023-05-11T04:57:19;100478.47;;;13.00;45.75
34674;BME280;20879;55.668;37.858;2023-05-11T04:59:49;100472.94;;;13.24;45.29
34674;BME280;20879;55.668;37.858;2023-05-11T05:02:18;100477.91;;;13.44;44.77
34674;BME280;20879;55.668;37.858;2023-05-11T05:04:48;100479.31;;;13.66;44.64
34674;BME280;20879;55.668;37.858;2023-05-11T05:07:19;100475.53;;;13.85;44.07
34674;BME280;20879;55.668;37.858;2023-05-11T05:09:54;100477.00;;;14.02;43.21
34674;BME280;20879;55.668;37.858;2023-05-11T05:12:24;100471.44;;;14.22;43.67
34674;BME280;20879;55.668;37.858;2023-05-11T05:15:09;100465.22;;;14.27;43.73
34674;BME280;20879;55.668;37.858;2023-05-11T05:17:44;100470.53;;;14.23;44.24
34674;BME280;20879;55.668;37.858;2023-05-11T05:20:20;100457.59;;;14.18;44.64
34674;BME280;20879;55.668;37.858;2023-05-11T05:22:51;100464.66;;;14.13;44.47
34674;BME280;20879;55.668;37.858;2023-05-11T05:25:21;100456.03;;;14.08;45.12
34674;BME280;20879;55.668;37.858;2023-05-11T05:27:56;100463.84;;;14.08;44.50
34674;BME280;20879;55.668;37.858;2023-05-11T05:30:26;100436.31;;;13.94;44.98
34674;BME280;20879;55.668;37.858;2023-05-11T05:32:56;100464.53;;;14.19;45.04
34674;BME280;20879;55.668;37.858;2023-05-11T05:35:25;100467.41;;;14.50;44.33
34674;BME280;20879;55.668;37.858;2023-05-11T05:37:57;100455.84;;;15.08;43.48
34674;BME280;20879;55.668;37.858;2023-05-11T05:40:35;100466.41;;;15.77;42.26
34674;BME280;20879;55.668;37.858;2023-05-11T05:43:08;100478.91;;;16.34;40.66
34674;BME280;20879;55.668;37.858;2023-05-11T05:45:38;100465.75;;;16.69;40.14
34674;BME280;20879;55.668;37.858;2023-05-11T05:48:08;100447.53;;;16.66;39.59
34674;BME280;20879;55.668;37.858;2023-05-11T05:50:43;100451.72;;;16.41;39.24
34674;BME280;20879;55.668;37.858;2023-05-11T05:53:15;100467.84;;;16.24;40.08
34674;BME280;20879;55.668;37.858;2023-05-11T05:55:46;100465.34;;;16.20;40.20
34674;BME280;20879;55.668;37.858;2023-05-11T05:58:15;100465.03;;;16.32;40.15
34674;BME280;20879;55.668;37.858;2023-05-11T06:00:45;100468.16;;;16.45;38.65
34674;BME280;20879;55.668;37.858;2023-05-11T06:03:15;100452.88;;;16.63;38.33
34674;BME280;20879;55.668;37.858;2023-05-11T06:05:45;100467.25;;;16.77;38.25
34674;BME280;20879;55.668;37.858;2023-05-11T06:08:22;100469.91;;;17.07;37.52
34674;BME280;20879;55.668;37.858;2023-05-11T06:10:57;100467.94;;;17.14;37.23
34674;BME280;20879;55.668;37.858;2023-05-11T06:13:27;100467.16;;;17.40;36.92
34674;BME280;20879;55.668;37.858;2023-05-11T06:15:59;100474.28;;;17.63;36.58
34674;BME280;20879;55.668;37.858;2023-05-11T06:18:32;100456.34;;;17.78;35.79
34674;BME280;20879;55.668;37.858;2023-05-11T06:21:12;100472.34;;;17.69;35.53
34674;BME280;20879;55.668;37.858;2023-05-11T06:23:48;100469.94;;;17.62;35.26
34674;BME280;20879;55.668;37.858;2023-05-11T06:26:18;100465.09;;;17.77;35.04
34674;BME280;20879;55.668;37.858;2023-05-11T06:28:52;100469.81;;;17.39;34.73
34674;BME280;20879;55.668;37.858;2023-05-11T06:31:40;100478.16;;;17.22;34.90
34674;BME280;20879;55.668;37.858;2023-05-11T06:34:10;100472.88;;;17.25;34.82
34674;BME280;20879;55.668;37.858;2023-05-11T06:36:54;100481.31;;;17.33;34.76
34674;BME280;20879;55.668;37.858;2023-05-11T06:39:29;100478.06;;;17.26;34.54
34674;BME280;20879;55.668;37.858;2023-05-11T06:42:06;100471.63;;;17.37;34.35
34674;BME280;20879;55.668;37.858;2023-05-11T06:44:36;100480.63;;;17.28;33.89
34674;BME280;20879;55.668;37.858;2023-05-11T06:47:19;100478.75;;;17.32;33.99
34674;BME280;20879;55.668;37.858;2023-05-11T06:49:49;100466.09;;;17.46;33.55
34674;BME280;20879;55.668;37.858;2023-05-11T06:52:18;100468.56;;;17.51;32.87
34674;BME280;20879;55.668;37.858;2023-05-11T06:54:49;100475.41;;;17.55;32.76
34674;BME280;20879;55.668;37.858;2023-05-11T06:57:24;100470.81;;;17.90;32.49
34674;BME280;20879;55.668;37.858;2023-05-11T06:59:53;100469.94;;;17.91;31.11
34674;BME280;20879;55.668;37.858;2023-05-11T07:02:36;100480.81;;;17.77;31.34
34674;BME280;20879;55.668;37.858;2023-05-11T07:05:06;100467.31;;;17.62;31.13
34674;BME280;20879;55.668;37.858;2023-05-11T07:07:41;100475.66;;;17.47;31.97
34674;BME280;20879;55.668;37.858;2023-05-11T07:10:13;100468.34;;;17.30;31.18
34674;BME280;20879;55.668;37.858;2023-05-11T07:12:48;100465.28;;;17.16;31.10
34674;BME280;20879;55.668;37.858;2023-05-11T07:15:17;100463.94;;;17.02;32.57
34674;BME280;20879;55.668;37.858;2023-05-11T07:17:52;100466.41;;;17.07;32.85
34674;BME280;20879;55.668;37.858;2023-05-11T07:20:21;100477.06;;;17.01;33.37
34674;BME280;20879;55.668;37.858;2023-05-11T07:22:56;100475.03;;;17.10;32.75
34674;BME280;20879;55.668;37.858;2023-05-11T07:25:34;100479.28;;;17.43;32.17
34674;BME280;20879;55.668;37.858;2023-05-11T07:28:04;100476.69;;;17.70;32.01
34674;BME280;20879;55.668;37.858;2023-05-11T07:30:33;100470.41;;;18.02;31.43
34674;BME280;20879;55.668;37.858;2023-05-11T07:33:08;100461.31;;;18.12;31.66
34674;BME280;20879;55.668;37.858;2023-05-11T07:35:44;100472.00;;;18.06;30.57
34674;BME280;20879;55.668;37.858;2023-05-11T07:38:20;100472.06;;;18.05;30.61
34674;BME280;20879;55.668;37.858;2023-05-11T07:40:51;100470.44;;;18.01;30.72
34674;BME280;20879;55.668;37.858;2023-05-11T07:43:21;100473.28;;;17.94;30.79
34674;BME280;20879;55.668;37.858;2023-05-11T07:45:50;100457.56;;;17.68;30.67
34674;BME280;20879;55.668;37.858;2023-05-11T07:48:20;100465.72;;;17.85;30.58
34674;BME280;20879;55.668;37.858;2023-05-11T07:50:50;100461.63;;;18.03;30.31
34674;BME280;20879;55.668;37.858;2023-05-11T07:53:19;100469.81;;;17.94;30.48
34674;BME280;20879;55.668;37.858;2023-05-11T07:55:49;100470.84;;;17.88;31.45
34674;BME280;20879;55.668;37.858;2023-05-11T07:58:25;100461.69;;;17.75;31.72
34674;BME280;20879;55.668;37.858;2023-05-11T08:00:55;100457.59;;;17.66;31.61
34674;BME280;20879;55.668;37.858;2023-05-11T08:03:24;100470.75;;;17.64;31.78
34674;BME280;20879;55.668;37.858;2023-05-11T08:05:54;100463.59;;;17.70;31.81
34674;BME280;20879;55.668;37.858;2023-05-11T08:11:13;100458.44;;;18.69;31.19
34674;BME280;20879;55.668;37.858;2023-05-11T08:13:44;100448.28;;;19.07;30.65
34674;BME280;20879;55.668;37.858;2023-05-11T08:16:24;100464.47;;;19.41;29.94
34674;BME280;20879;55.668;37.858;2023-05-11T08:18:53;100460.44;;;19.54;29.96
34674;BME280;20879;55.668;37.858;2023-05-11T08:21:29;100454.31;;;19.76;30.13
34674;BME280;20879;55.668;37.858;2023-05-11T08:23:59;100461.69;;;19.66;29.89
34674;BME280;20879;55.668;37.858;2023-05-11T08:26:43;100465.31;;;19.63;30.37
34674;BME280;20879;55.668;37.858;2023-05-11T08:29:15;100458.91;;;19.48;30.50
34674;BME280;20879;55.668;37.858;2023-05-11T08:31:52;100462.28;;;19.30;30.33
34674;BME280;20879;55.668;37.858;2023-05-11T08:34:21;100447.50;;;19.05;30.28
34674;BME280;20879;55.668;37.858;2023-05-11T08:36:51;100454.44;;;19.06;30.64
34674;BME280;20879;55.668;37.858;2023-05-11T08:39:27;100458.97;;;19.25;30.55
34674;BME280;20879;55.668;37.858;2023-05-11T08:42:15;100462.22;;;19.53;30.49
34674;BME280;20879;55.668;37.858;2023-05-11T08:44:55;100447.44;;;19.94;29.96
34674;BME280;20879;55.668;37.858;2023-05-11T08:47:41;100451.59;;;20.20;29.62
34674;BME280;20879;55.668;37.858;2023-05-11T08:50:11;100433.97;;;20.01;29.74
34674;BME280;20879;55.668;37.858;2023-05-11T08:52:41;100443.06;;;19.72;29.92
34674;BME280;20879;55.668;37.858;2023-05-11T08:55:31;100450.91;;;19.29;30.11
34674;BME280;20879;55.668;37.858;2023-05-11T08:58:12;100444.13;;;18.78;30.95
34674;BME280;20879;55.668;37.858;2023-05-11T09:00:47;100437.38;;;18.47;31.25
34674;BME280;20879;55.668;37.858;2023-05-11T09:03:18;100419.03;;;18.47;31.12
34674;BME280;20879;55.668;37.858;2023-05-11T09:05:48;100429.56;;;18.69;31.08
34674;BME280;20879;55.668;37.858;2023-05-11T09:08:19;100413.38;;;18.58;31.72
34674;BME280;20879;55.668;37.858;2023-05-11T09:10:48;100412.13;;;18.68;31.64
34674;BME280;20879;55.668;37.858;2023-05-11T09:13:18;100412.56;;;19.03;31.10
34674;BME280;20879;55.668;37.858;2023-05-11T09:15:55;100402.03;;;19.47;30.71
34674;BME280;20879;55.668;37.858;2023-05-11T09:18:29;100408.28;;;20.08;29.63
34674;BME280;20879;55.668;37.858;2023-05-11T09:21:00;100396.00;;;20.67;29.08
34674;BME280;20879;55.668;37.858;2023-05-11T09:23:35;100401.66;;;21.15;28.74
34674;BME280;20879;55.668;37.858;2023-05-11T09:26:12;100380.66;;;21.13;28.25
34674;BME280;20879;55.668;37.858;2023-05-11T09:28:50;100408.34;;;21.22;28.40
34674;BME280;20879;55.668;37.858;2023-05-11T09:31:36;100408.25;;;20.87;28.65
34674;BME280;20879;55.668;37.858;2023-05-11T09:34:14;100401.09;;;20.51;29.59
34674;BME280;20879;55.668;37.858;2023-05-11T09:36:50;100390.16;;;20.02;30.27
34674;BME280;20879;55.668;37.858;2023-05-11T09:39:28;100402.09;;;19.68;30.54
34674;BME280;20879;55.668;37.858;2023-05-11T09:42:16;100357.25;;;19.08;31.34
34674;BME280;20879;55.668;37.858;2023-05-11T09:44:51;100385.66;;;19.20;31.47
34674;BME280;20879;55.668;37.858;2023-05-11T09:47:38;100384.91;;;19.16;31.88
34674;BME280;20879;55.668;37.858;2023-05-11T09:50:15;100357.50;;;19.01;31.34
34674;BME280;20879;55.668;37.858;2023-05-11T09:52:51;100354.19;;;18.98;31.52
34674;BME280;20879;55.668;37.858;2023-05-11T09:55:22;100366.78;;;19.10;31.06
34674;BME280;20879;55.668;37.858;2023-05-11T09:57:56;100361.78;;;19.26;30.56
34674;BME280;20879;55.668;37.858;2023-05-11T10:00:26;100349.00;;;19.39;30.15
34674;BME280;20879;55.668;37.858;2023-05-11T10:03:01;100334.16;;;19.59;30.24
34674;BME280;20879;55.668;37.858;2023-05-11T10:05:33;100346.91;;;20.09;29.72
34674;BME280;20879;55.668;37.858;2023-05-11T10:08:08;100358.00;;;20.35;29.61
34674;BME280;20879;55.668;37.858;2023-05-11T10:10:38;100354.91;;;20.65;29.26
34674;BME280;20879;55.668;37.858;2023-05-11T10:13:13;100361.38;;;20.95;28.28
34674;BME280;20879;55.668;37.858;2023-05-11T10:15:43;100351.81;;;20.93;28.17
34674;BME280;20879;55.668;37.858;2023-05-11T10:18:14;100366.47;;;20.99;28.24
34674;BME280;20879;55.668;37.858;2023-05-11T10:20:57;100358.03;;;20.73;29.02
34674;BME280;20879;55.668;37.858;2023-05-11T10:23:27;100376.06;;;19.62;30.00
34674;BME280;20879;55.668;37.858;2023-05-11T10:26:04;100337.06;;;18.65;31.49
34674;BME280;20879;55.668;37.858;2023-05-11T10:28:34;100329.97;;;18.22;32.13
34674;BME280;20879;55.668;37.858;2023-05-11T10:31:04;100283.28;;;17.59;33.45
34674;BME280;20879;55.668;37.858;2023-05-11T10:33:42;100334.59;;;16.83;35.87
34674;BME280;20879;55.668;37.858;2023-05-11T10:36:15;100379.06;;;16.23;38.89
34674;BME280;20879;55.668;37.858;2023-05-11T10:38:46;100378.25;;;15.88;40.31
34674;BME280;20879;55.668;37.858;2023-05-11T10:41:31;100459.69;;;15.66;41.48
34674;BME280;20879;55.668;37.858;2023-05-11T10:44:34;100456.53;;;15.16;44.14
34674;BME280;20879;55.668;37.858;2023-05-11T10:47:22;100419.97;;;15.17;43.17
34674;BME280;20879;55.668;37.858;2023-05-11T10:50:14;100405.16;;;15.55;41.13
34674;BME280;20879;55.668;37.858;2023-05-11T10:55:56;100427.94;;;16.18;40.98
34674;BME280;20879;55.668;37.858;2023-05-11T10:58:45;100436.03;;;16.08;41.08
34674;BME280;20879;55.668;37.858;2023-05-11T11:01:33;100423.66;;;15.82;41.94
34674;BME280;20879;55.668;37.858;2023-05-11T11:04:11;100434.06;;;15.48;41.83
34674;BME280;20879;55.668;37.858;2023-05-11T11:07:04;100432.91;;;15.60;42.17
34674;BME280;20879;55.668;37.858;2023-05-11T11:09:50;100436.69;;;15.84;43.37
34674;BME280;20879;55.668;37.858;2023-05-11T11:12:20;100417.25;;;15.94;43.43
34674;BME280;20879;55.668;37.858;2023-05-11T11:14:54;100436.94;;;16.07;44.09
34674;BME280;20879;55.668;37.858;2023-05-11T11:17:24;100432.63;;;16.38;42.95
34674;BME280;20879;55.668;37.858;2023-05-11T11:20:02;100432.81;;;16.32;44.13
34674;BME280;20879;55.668;37.858;2023-05-11T11:22:45;100421.06;;;16.15;45.20
34674;BME280;20879;55.668;37.858;2023-05-11T11:25:50;100426.19;;;16.50;43.57
34674;BME280;20879;55.668;37.858;2023-05-11T11:28:26;100421.75;;;16.83;43.23
34674;BME280;20879;55.668;37.858;2023-05-11T11:31:22;100429.84;;;17.34;42.39
34674;BME280;20879;55.668;37.858;2023-05-11T11:33:53;100397.47;;;17.90;41.06
34674;BME280;20879;55.668;37.858;2023-05-11T11:39:29;100397.97;;;18.01;40.24
34674;BME280;20879;55.668;37.858;2023-05-11T11:42:13;100405.53;;;17.57;40.65
34674;BME280;20879;55.668;37.858;2023-05-11T11:44:44;100403.09;;;17.24;40.43
34674;BME280;20879;55.668;37.858;2023-05-11T11:47:15;100399.44;;;16.71;40.39
34674;BME280;20879;55.668;37.858;2023-05-11T11:49:47;100397.16;;;16.29;41.23
34674;BME280;20879;55.668;37.858;2023-05-11T11:52:32;100402.81;;;16.45;41.42
34674;BME280;20879;55.668;37.858;2023-05-11T11:55:45;100382.59;;;16.52;41.17
34674;BME280;20879;55.668;37.858;2023-05-11T12:01:16;100376.72;;;16.14;41.38
34674;BME280;20879;55.668;37.858;2023-05-11T12:03:53;100363.06;;;16.34;40.60
34674;BME280;20879;55.668;37.858;2023-05-11T12:06:38;100380.75;;;16.85;39.64
34674;BME280;20879;55.668;37.858;2023-05-11T12:09:10;100366.16;;;17.06;39.76
34674;BME280;20879;55.668;37.858;2023-05-11T12:11:47;100361.88;;;17.04;38.96
34674;BME280;20879;55.668;37.858;2023-05-11T12:14:22;100365.91;;;17.14;39.32
34674;BME280;20879;55.668;37.858;2023-05-11T12:17:06;100364.16;;;17.41;38.76
34674;BME280;20879;55.668;37.858;2023-05-11T12:19:43;100363.44;;;17.63;37.65
34674;BME280;20879;55.668;37.858;2023-05-11T12:22:12;100354.53;;;17.67;37.81
34674;BME280;20879;55.668;37.858;2023-05-11T12:24:43;100371.47;;;17.84;38.07
34674;BME280;20879;55.668;37.858;2023-05-11T12:27:19;100359.59;;;17.73;37.33
34674;BME280;20879;55.668;37.858;2023-05-11T12:29:49;100369.63;;;17.60;38.07
34674;BME280;20879;55.668;37.858;2023-05-11T12:32:26;100353.28;;;17.79;37.76
34674;BME280;20879;55.668;37.858;2023-05-11T12:34:57;100371.31;;;18.13;37.88
34674;BME280;20879;55.668;37.858;2023-05-11T12:37:31;100355.13;;;18.49;37.14
34674;BME280;20879;55.668;37.858;2023-05-11T12:40:12;100361.69;;;18.61;36.59
34674;BME280;20879;55.668;37.858;2023-05-11T12:42:51;100365.63;;;18.49;36.70
34674;BME280;20879;55.668;37.858;2023-05-11T12:51:47;100351.56;;;17.78;38.75
34674;BME280;20879;55.668;37.858;2023-05-11T12:54:30;100345.69;;;17.71;39.05
34674;BME280;20879;55.668;37.858;2023-05-11T12:57:01;100336.88;;;17.74;38.70
34674;BME280;20879;55.668;37.858;2023-05-11T12:59:33;100342.06;;;18.01;39.32
34674;BME280;20879;55.668;37.858;2023-05-11T13:02:17;100341.66;;;17.86;39.64
34674;BME280;20879;55.668;37.858;2023-05-11T13:04:47;100336.66;;;17.55;40.38
34674;BME280;20879;55.668;37.858;2023-05-11T13:07:26;100344.63;;;17.52;40.11
34674;BME280;20879;55.668;37.858;2023-05-11T13:10:01;100328.28;;;17.70;38.23
34674;BME280;20879;55.668;37.858;2023-05-11T13:12:49;100344.94;;;17.68;37.41
34674;BME280;20879;55.668;37.858;2023-05-11T13:15:25;100343.00;;;17.73;37.23
34674;BME280;20879;55.668;37.858;2023-05-11T13:17:58;100347.97;;;17.55;37.12
34674;BME280;20879;55.668;37.858;2023-05-11T13:20:29;100339.03;;;17.36;37.56
34674;BME280;20879;55.668;37.858;2023-05-11T13:23:12;100349.00;;;16.98;38.67
34674;BME280;20879;55.668;37.858;2023-05-11T13:25:51;100345.25;;;16.76;39.39
34674;BME280;20879;55.668;37.858;2023-05-11T13:28:22;100344.97;;;16.57;39.87
34674;BME280;20879;55.668;37.858;2023-05-11T13:31:02;100344.56;;;16.41;38.53
34674;BME280;20879;55.668;37.858;2023-05-11T13:33:36;100338.75;;;16.32;39.33
34674;BME280;20879;55.668;37.858;2023-05-11T13:36:06;100341.31;;;16.33;39.94
34674;BME280;20879;55.668;37.858;2023-05-11T13:38:37;100345.78;;;16.30;40.10
34674;BME280;20879;55.668;37.858;2023-05-11T13:41:07;100328.66;;;16.19;40.07